Welcome to Northern Hawkes Bay. New Zealand.
PWS Header
      nz Flag



Hit Counter


W3C Valid W3C Valid logo


    Wairoa

Select any of the Stations below to visit their websites.










Historic Data from Weather Underground
Select the location of interest below. Wairoa is the default. Please have patience, this Data is slow to load in.
Northern Hawkes Bay Historical Data
Daily Summary for July 20, 2017 Units:  English    Metric   Both
« Previous Day
Next Day »
Daily Weekly Monthly Yearly Custom
  High: Low: Average:
Temperature: 68.2 °F 41.5 °F 55.8 °F
Dew Point: 56.5 °F 41.4 °F 50.2 °F
Humidity: 99% 60% 83%
Wind Speed: 15.9mph 0mph 3.2mph
Wind Gust: 27.3mph - -
Wind- - ESE
Pressure: 29.8 in 28.9 in -
Precipitation: 0.02 in    
Historical Graphs
 
 
Tabular Data for July 20, 2017
Time Temperature Dew Point Pressure Wind Wind Speed Wind Gust Humidity Rainfall Rate (Hourly) solar
00:05 50 °F 48.6 °F 29.8 in WSW 0.7 mph 3.1 mph 95% 0 in 0 W/m2
00:10 50 °F 48.6 °F 29.8 in WNW 1.6 mph 3.1 mph 95% 0 in 0 W/m2
00:12 50 °F 48.6 °F 29.8 in WNW 1.6 mph 3.1 mph 95% 0 in 0 W/m2
00:17 50.4 °F 48.9 °F 29.8 in NW 0.7 mph 3.1 mph 95% 0 in 0 W/m2
00:22 49.8 °F 48.7 °F 29.8 in Calm   3.1 mph 96% 0 in 0 W/m2
00:27 49.5 °F 48 °F 29.8 in NNE 0.7 mph 1.6 mph 95% 0 in 0 W/m2
00:32 48.7 °F 47.5 °F 29.8 in North 1.6 mph 2.2 mph 95% 0 in 0 W/m2
00:37 49.6 °F 48.4 °F 29.8 in North 2.2 mph 3.1 mph 95% 0 in 0 W/m2
00:42 49.5 °F 48.4 °F 29.8 in NNW 1.6 mph 3.1 mph 96% 0 in 0 W/m2
00:47 49.3 °F 48.2 °F 29.8 in NW 0.7 mph 3.1 mph 96% 0 in 0 W/m2
00:52 49.5 °F 48.4 °F 29.8 in NW 0.7 mph 2.2 mph 96% 0 in 0 W/m2
00:57 49.6 °F 48.6 °F 29.8 in Calm   2.2 mph 96% 0 in 0 W/m2
01:02 50 °F 48.6 °F 29.8 in North 1.6 mph 2.2 mph 95% 0 in 0 W/m2
01:07 49.8 °F 48.7 °F 29.8 in Calm   2.2 mph 96% 0 in 0 W/m2
01:12 49.3 °F 48.2 °F 29.8 in NE 0.7 mph 2.2 mph 96% 0 in 0 W/m2
01:17 49.6 °F 48.6 °F 29.8 in NNE 0.7 mph 2.2 mph 96% 0 in 0 W/m2
01:22 49.6 °F 48.6 °F 29.8 in North 0.7 mph 2.2 mph 96% 0 in 0 W/m2
01:27 49.6 °F 48.6 °F 29.8 in NNW 2.2 mph 3.1 mph 96% 0 in 0 W/m2
01:32 49.8 °F 48.7 °F 29.8 in NW 2.2 mph 3.8 mph 96% 0 in 0 W/m2
01:37 49.5 °F 48.4 °F 29.8 in NNW 1.6 mph 3.8 mph 96% 0 in 0 W/m2
01:40 49.8 °F 48.7 °F 29.8 in NNW 0.7 mph 3.8 mph 96% 0 in 0 W/m2
01:45 49.3 °F 48.2 °F 29.8 in Calm   3.1 mph 96% 0 in 0 W/m2
01:50 49.1 °F 48 °F 29.8 in North 1.6 mph 3.1 mph 96% 0 in 0 W/m2
01:55 49.1 °F 48 °F 29.8 in NW 2.2 mph 3.8 mph 96% 0 in 0 W/m2
02:00 49.3 °F 48.2 °F 29.8 in NW 1.6 mph 3.8 mph 96% 0 in 0 W/m2
02:05 49.5 °F 48.4 °F 29.8 in NNW 3.1 mph 3.8 mph 96% 0 in 0 W/m2
02:06 49.6 °F 48.6 °F 29.8 in NNW 3.1 mph 3.8 mph 96% 0 in 0 W/m2
02:11 49.6 °F 48.7 °F 29.8 in NNW 2.2 mph 3.8 mph 97% 0 in 0 W/m2
02:16 49.8 °F 48.9 °F 29.8 in NW 2.2 mph 3.8 mph 97% 0 in 0 W/m2
02:21 50.4 °F 49.3 °F 29.8 in NNW 1.6 mph 3.8 mph 96% 0 in 0 W/m2
02:26 50.4 °F 49.3 °F 29.8 in NNE 0.7 mph 3.8 mph 96% 0 in 0 W/m2
02:31 50 °F 48.9 °F 29.8 in NNE 1.6 mph 2.2 mph 96% 0 in 0 W/m2
02:36 50.5 °F 49.5 °F 29.8 in North 2.2 mph 3.8 mph 96% 0 in 0 W/m2
02:41 50.2 °F 49.1 °F 29.8 in North 2.2 mph 3.8 mph 96% 0 in 0 W/m2
02:46 50.4 °F 48.9 °F 29.8 in North 1.6 mph 3.8 mph 95% 0 in 0 W/m2
02:51 50.2 °F 48.7 °F 29.8 in North 0.7 mph 3.1 mph 95% 0 in 0 W/m2
02:56 49.3 °F 48.2 °F 29.8 in NNE 0.7 mph 3.1 mph 96% 0 in 0 W/m2
03:01 49.6 °F 48.6 °F 29.8 in NE 0.7 mph 3.1 mph 96% 0 in 0 W/m2
03:06 49.3 °F 48.2 °F 29.8 in NNE 1.6 mph 3.1 mph 96% 0 in 0 W/m2
03:11 48.6 °F 47.5 °F 29.8 in NNW 2.2 mph 3.1 mph 96% 0 in 0 W/m2
03:16 47.8 °F 46.8 °F 29.8 in NW 2.2 mph 3.1 mph 96% 0 in 0 W/m2
03:21 48.7 °F 47.7 °F 29.8 in NW 1.6 mph 3.1 mph 96% 0 in 0 W/m2
03:27 48.4 °F 47.3 °F 29.8 in North 0.7 mph 2.2 mph 96% 0 in 0 W/m2
03:32 47.5 °F 46.4 °F 29.8 in NE 0.7 mph 2.2 mph 96% 0 in 0 W/m2
03:37 48.2 °F 46.8 °F 29.8 in Calm   1.6 mph 95% 0 in 0 W/m2
03:42 48 °F 47.1 °F 29.8 in Calm   1.6 mph 97% 0 in 0 W/m2
03:47 47.7 °F 46.9 °F 29.8 in Calm   1.6 mph 97% 0 in 0 W/m2
03:52 46.8 °F 45.7 °F 29.7 in WNW 0.7 mph 1.6 mph 96% 0 in 0 W/m2
03:57 47.1 °F 46 °F 29.7 in NW 1.6 mph 2.2 mph 96% 0 in 0 W/m2
04:02 47.1 °F 46.2 °F 29.7 in NNW 1.6 mph 3.1 mph 97% 0 in 0 W/m2
04:07 46.8 °F 46 °F 29.7 in NNW 1.6 mph 3.1 mph 97% 0 in 0 W/m2
04:12 46.4 °F 45.3 °F 29.7 in North 1.6 mph 3.8 mph 96% 0 in 0 W/m2
04:17 46 °F 45.1 °F 29.7 in Calm   3.8 mph 97% 0 in 0 W/m2
04:22 46 °F 45.1 °F 29.7 in NNE 0.7 mph 3.1 mph 97% 0 in 0 W/m2
04:27 46.2 °F 45.3 °F 29.7 in ENE 1.6 mph 3.1 mph 97% 0 in 0 W/m2
04:32 46.2 °F 45.3 °F 29.7 in East 0.7 mph 3.1 mph 97% 0 in 0 W/m2
04:37 46.9 °F 46 °F 29.7 in Calm   3.1 mph 97% 0 in 0 W/m2
04:42 46.6 °F 45.9 °F 29.7 in East 0.7 mph 1.6 mph 97% 0 in 0 W/m2
04:47 46.4 °F 45.7 °F 29.7 in SW 0.7 mph 2.2 mph 97% 0 in 0 W/m2
04:52 46.6 °F 46 °F 29.7 in Calm   2.2 mph 98% 0 in 0 W/m2
04:57 46.9 °F 46.4 °F 29.7 in Calm   1.6 mph 98% 0 in 0 W/m2
05:02 46.9 °F 46.4 °F 29.7 in Calm   1.6 mph 98% 0 in 0 W/m2
05:08 46 °F 45.1 °F 29.7 in Calm   1.6 mph 97% 0 in 0 W/m2
05:13 45.9 °F 45.1 °F 29.7 in ESE 2.2 mph 3.1 mph 97% 0 in 0 W/m2
05:18 46.2 °F 45.3 °F 29.7 in ESE 1.6 mph 3.8 mph 97% 0 in 0 W/m2
05:23 46.6 °F 46 °F 29.7 in Calm   3.8 mph 98% 0 in 0 W/m2
05:28 46.9 °F 46.4 °F 29.7 in Calm   2.2 mph 98% 0 in 0 W/m2
05:33 46.4 °F 45.9 °F 29.7 in Calm   1.6 mph 98% 0 in 0 W/m2
05:38 45.7 °F 45 °F 29.7 in NW 1.6 mph 2.2 mph 97% 0 in 0 W/m2
05:43 45.1 °F 44.2 °F 29.7 in NW 1.6 mph 2.2 mph 97% 0 in 0 W/m2
05:48 45 °F 44.2 °F 29.7 in Calm   3.1 mph 97% 0 in 0 W/m2
05:53 44.2 °F 43.7 °F 29.7 in Calm   3.1 mph 98% 0 in 0 W/m2
05:58 44.2 °F 43.7 °F 29.7 in NE 0.7 mph 1.6 mph 98% 0 in 0 W/m2
06:03 44.4 °F 43.9 °F 29.7 in Calm   1.6 mph 98% 0 in 0 W/m2
06:08 44.8 °F 44.1 °F 29.7 in Calm   1.6 mph 97% 0 in 0 W/m2
06:13 44.6 °F 43.9 °F 29.7 in North 1.6 mph 1.6 mph 97% 0 in 0 W/m2
06:18 44.1 °F 43.5 °F 29.7 in NW 0.7 mph 1.6 mph 98% 0 in 0 W/m2
06:23 43.7 °F 43.2 °F 29.7 in West 0.7 mph 1.6 mph 98% 0 in 0 W/m2
06:28 43.7 °F 43.2 °F 29.7 in SW 1.6 mph 2.2 mph 98% 0 in 0 W/m2
06:33 43.3 °F 42.8 °F 29.7 in Calm   2.2 mph 98% 0 in 0 W/m2
06:38 43.9 °F 43.3 °F 29.7 in North 2.2 mph 3.1 mph 98% 0 in 0 W/m2
06:43 43.3 °F 42.8 °F 29.7 in NW 1.6 mph 3.1 mph 98% 0 in 0 W/m2
06:48 43.2 °F 42.6 °F 29.7 in NNW 0.7 mph 3.1 mph 98% 0 in 0 W/m2
06:53 43 °F 42.4 °F 29.7 in NW 0.7 mph 2.2 mph 98% 0 in 0 W/m2
06:58 43.3 °F 42.8 °F 29.7 in NW 3.1 mph 3.8 mph 98% 0 in 0 W/m2
07:03 43.2 °F 42.6 °F 29.7 in NNW 1.6 mph 3.8 mph 98% 0 in 0 W/m2
07:08 42.8 °F 42.3 °F 29.7 in NNW 1.6 mph 3.8 mph 98% 0 in 0 W/m2
07:13 42.4 °F 42.3 °F 29.7 in North 0.7 mph 3.1 mph 99% 0 in 0 W/m2
07:18 41.9 °F 41.5 °F 29.7 in NE 1.6 mph 3.1 mph 99% 0 in 0 W/m2
07:23 41.9 °F 41.5 °F 29.7 in North 1.6 mph 3.1 mph 99% 0 in 0 W/m2
07:28 42.1 °F 41.7 °F 29.7 in NNW 2.2 mph 3.8 mph 99% 0 in 0 W/m2
07:33 41.5 °F 41.4 °F 29.7 in NNW 0.7 mph 3.8 mph 99% 0 in 3 W/m2
07:38 41.5 °F 41.4 °F 29.7 in North 2.2 mph 3.8 mph 99% 0 in 6 W/m2
07:40 41.5 °F 41.4 °F 29.7 in North 2.2 mph 3.8 mph 99% 0 in 9 W/m2
07:45 41.9 °F 41.5 °F 29.7 in NNW 2.2 mph 4.5 mph 99% 0 in 19 W/m2
07:50 42.1 °F 41.7 °F 29.7 in NNW 2.2 mph 4.5 mph 99% 0 in 39 W/m2
07:55 42.4 °F 42.3 °F 29.7 in NNW 2.2 mph 3.8 mph 99% 0 in 54 W/m2
08:00 43 °F 42.4 °F 29.7 in NNW 2.2 mph 3.8 mph 98% 0 in 35 W/m2
08:05 43.2 °F 42.6 °F 29.7 in NNW 1.6 mph 3.8 mph 98% 0 in 49 W/m2
08:10 43.2 °F 42.6 °F 29.7 in North 2.2 mph 3.8 mph 98% 0 in 38 W/m2
08:15 43.5 °F 43 °F 29.7 in North 1.6 mph 3.8 mph 98% 0 in 70 W/m2
08:20 44.2 °F 43.7 °F 29.7 in North 1.6 mph 3.8 mph 98% 0 in 91 W/m2
08:25 45.1 °F 44.2 °F 29.7 in North 0.7 mph 3.1 mph 97% 0 in 77 W/m2
08:30 45.3 °F 44.4 °F 29.7 in North 1.6 mph 3.1 mph 97% 0 in 66 W/m2
08:35 45.7 °F 45 °F 29.7 in North 1.6 mph 3.1 mph 97% 0 in 83 W/m2
08:40 46.4 °F 45.9 °F 29.7 in Calm   3.1 mph 98% 0 in 139 W/m2
08:45 47.7 °F 47.1 °F 29.7 in NE 0.7 mph 2.2 mph 98% 0 in 100 W/m2
08:50 48.9 °F 48.4 °F 29.7 in NE 0.7 mph 2.2 mph 98% 0 in 166 W/m2
08:55 50 °F 49.3 °F 29.7 in NNE 0.7 mph 2.2 mph 97% 0 in 93 W/m2
09:00 49.1 °F 48 °F 29.7 in North 0.7 mph 3.1 mph 96% 0 in 130 W/m2
09:05 49.6 °F 48.4 °F 29.7 in NNW 1.6 mph 3.8 mph 95% 0 in 169 W/m2
09:10 50.2 °F 48.2 °F 29.7 in North 0.7 mph 3.8 mph 93% 0 in 103 W/m2
09:15 50 °F 47.5 °F 29.7 in North 0.7 mph 3.1 mph 91% 0 in 239 W/m2
09:20 51.4 °F 48.9 °F 29.7 in North 1.6 mph 3.1 mph 91% 0 in 257 W/m2
09:25 52.7 °F 49.3 °F 29.7 in Calm   3.1 mph 88% 0 in 224 W/m2
09:30 54.5 °F 50.4 °F 29.7 in North 0.7 mph 3.1 mph 86% 0 in 156 W/m2
09:35 54.7 °F 49.3 °F 29.7 in North 0.7 mph 3.1 mph 82% 0 in 142 W/m2
09:40 54.7 °F 48.6 °F 29.7 in Calm   3.1 mph 80% 0 in 96 W/m2
09:45 54.1 °F 48 °F 29.7 in NNW 1.6 mph 3.1 mph 80% 0 in 98 W/m2
09:50 54.3 °F 48.6 °F 29.7 in NNW 2.2 mph 3.1 mph 81% 0 in 98 W/m2
09:55 54.9 °F 49.1 °F 29.7 in Calm   3.1 mph 81% 0 in 108 W/m2
10:00 55.8 °F 49.6 °F 29.7 in Calm   3.1 mph 80% 0 in 107 W/m2
10:05 56.7 °F 50.2 °F 29.7 in NNW 3.8 mph 5.4 mph 79% 0 in 107 W/m2
10:10 57.2 °F 49.6 °F 29.7 in NW 2.2 mph 5.4 mph 76% 0 in 115 W/m2
10:15 58.1 °F 49.8 °F 29.7 in NNE 4.5 mph 8.3 mph 74% 0 in 119 W/m2
10:31 58.5 °F 48.7 °F 29.7 in NNE 3.1 mph 12.1 mph 70% 0 in 100 W/m2
10:36 58.5 °F 49.1 °F 29.7 in NNE 3.1 mph 7.6 mph 71% 0 in 94 W/m2
10:41 58.3 °F 48.6 °F 29.7 in NNE 4.5 mph 8.3 mph 70% 0 in 75 W/m2
10:46 58.3 °F 48.9 °F 29.7 in NE 6.9 mph 11.4 mph 71% 0 in 65 W/m2
10:51 58.3 °F 48.6 °F 29.7 in ENE 6.9 mph 11.4 mph 70% 0 in 60 W/m2
10:56 58.3 °F 48.2 °F 29.6 in ENE 3.8 mph 11.4 mph 69% 0 in 62 W/m2
11:01 58.5 °F 48.7 °F 29.6 in ENE 3.1 mph 9.8 mph 70% 0 in 66 W/m2
11:06 58.5 °F 48.4 °F 29.6 in NE 3.1 mph 10.7 mph 69% 0 in 78 W/m2
11:11 58.6 °F 48.6 °F 29.6 in NE 4.5 mph 10.7 mph 69% 0 in 99 W/m2
11:16 58.8 °F 48.4 °F 29.6 in NE 6 mph 11.4 mph 68% 0 in 101 W/m2
11:21 59 °F 48 °F 29.6 in NE 6 mph 11.4 mph 67% 0 in 94 W/m2
11:26 59 °F 48 °F 29.6 in NE 5.4 mph 9.8 mph 67% 0 in 80 W/m2
11:43 58.8 °F 48.7 °F 29.6 in NE 3.8 mph 13 mph 69% 0 in 74 W/m2
11:48 59 °F 48.6 °F 29.6 in NE 4.5 mph 13 mph 68% 0 in 89 W/m2
11:53 59.2 °F 48.6 °F 29.6 in NNE 6 mph 9.8 mph 68% 0 in 100 W/m2
11:58 59.4 °F 48.4 °F 29.6 in NNE 3.1 mph 9.8 mph 67% 0 in 78 W/m2
12:03 59.4 °F 48.4 °F 29.6 in NE 6 mph 9.8 mph 67% 0 in 66 W/m2
12:08 59.4 °F 48.7 °F 29.6 in ENE 2.2 mph 9.2 mph 68% 0 in 69 W/m2
12:13 59.4 °F 48.7 °F 29.6 in NE 4.5 mph 8.3 mph 68% 0 in 81 W/m2
12:18 59.4 °F 48.7 °F 29.6 in NE 4.5 mph 9.2 mph 68% 0 in 86 W/m2
12:23 59.4 °F 48.7 °F 29.6 in NE 3.8 mph 9.2 mph 68% 0 in 81 W/m2
12:28 59.4 °F 48.7 °F 29.6 in NE 3.1 mph 6.9 mph 68% 0 in 78 W/m2
12:33 59.5 °F 48.9 °F 29.6 in NE 3.1 mph 6 mph 68% 0 in 89 W/m2
12:38 59.5 °F 48.9 °F 29.6 in NE 2.2 mph 5.4 mph 68% 0 in 92 W/m2
12:44 59.7 °F 49.3 °F 29.6 in ENE 1.6 mph 3.8 mph 68% 0 in 92 W/m2
12:49 59.9 °F 49.6 °F 29.6 in NE 0.7 mph 3.1 mph 69% 0 in 93 W/m2
12:54 60.3 °F 49.6 °F 29.6 in NE 2.2 mph 4.5 mph 68% 0 in 94 W/m2
12:59 60.1 °F 49.1 °F 29.6 in NE 1.6 mph 6 mph 67% 0 in 107 W/m2
13:04 60.3 °F 50.2 °F 29.6 in NE 1.6 mph 6 mph 69% 0 in 130 W/m2
13:09 60.4 °F 50.5 °F 29.6 in NE 0.7 mph 3.1 mph 70% 0 in 140 W/m2
13:14 61.7 °F 51.1 °F 29.6 in NE 2.2 mph 3.8 mph 68% 0 in 169 W/m2
13:19 62.6 °F 50.7 °F 29.6 in ENE 3.8 mph 5.4 mph 65% 0 in 179 W/m2
13:24 61.7 °F 49.5 °F 29.5 in ENE 3.1 mph 6 mph 64% 0 in 157 W/m2
13:30 61.5 °F 49.6 °F 29.6 in East 2.2 mph 6 mph 65% 0 in 148 W/m2
13:35 61.5 °F 50.2 °F 29.5 in East 1.6 mph 5.4 mph 66% 0 in 158 W/m2
13:40 62.4 °F 51.6 °F 29.5 in SE 3.8 mph 4.5 mph 68% 0 in 182 W/m2
13:45 64.4 °F 53.2 °F 29.5 in SE 4.5 mph 5.4 mph 67% 0 in 185 W/m2
13:50 64.6 °F 52.5 °F 29.5 in SE 1.6 mph 7.6 mph 65% 0 in 144 W/m2
13:55 64.9 °F 52.5 °F 29.5 in SE 2.2 mph 7.6 mph 64% 0 in 122 W/m2
14:00 65.7 °F 53.6 °F 29.5 in SE 1.6 mph 5.4 mph 65% 0 in 114 W/m2
14:05 65.8 °F 52 °F 29.5 in ENE 1.6 mph 6 mph 61% 0 in 128 W/m2
14:10 66.9 °F 52.5 °F 29.5 in NNE 3.1 mph 6 mph 60% 0 in 129 W/m2
14:15 66.2 °F 52.9 °F 29.5 in North 7.6 mph 13 mph 62% 0 in 140 W/m2
14:20 65.1 °F 53.1 °F 29.5 in NNE 6 mph 15.2 mph 65% 0 in 137 W/m2
14:25 65.3 °F 53.8 °F 29.5 in NNE 3.1 mph 15.2 mph 66% 0 in 213 W/m2
14:30 66.6 °F 52.7 °F 29.5 in ENE 1.6 mph 9.8 mph 61% 0 in 134 W/m2
14:35 66 °F 53.1 °F 29.5 in NE 1.6 mph 3.8 mph 63% 0 in 134 W/m2
14:40 66.4 °F 54 °F 29.5 in Calm   3.8 mph 64% 0 in 172 W/m2
14:45 68.2 °F 54.7 °F 29.5 in NNE 0.7 mph 3.1 mph 62% 0 in 135 W/m2
14:50 67.5 °F 53.1 °F 29.5 in NE 3.1 mph 6.9 mph 60% 0 in 190 W/m2
14:55 66.9 °F 53.4 °F 29.5 in NE 3.1 mph 6.9 mph 62% 0 in 144 W/m2
15:00 66.6 °F 53.6 °F 29.5 in NE 3.8 mph 6.9 mph 63% 0 in 139 W/m2
15:05 65.8 °F 53.8 °F 29.5 in NNE 3.8 mph 6.9 mph 65% 0 in 187 W/m2
15:11 66.4 °F 53.4 °F 29.5 in North 4.5 mph 7.6 mph 63% 0 in 107 W/m2
15:16 65.7 °F 53.6 °F 29.5 in NNE 3.1 mph 7.6 mph 65% 0 in 135 W/m2
15:21 66.2 °F 53.8 °F 29.4 in NNE 1.6 mph 7.6 mph 64% 0 in 156 W/m2
15:26 66.7 °F 53.2 °F 29.4 in NE 2.2 mph 7.6 mph 62% 0 in 95 W/m2
15:31 65.3 °F 53.2 °F 29.4 in NE 2.2 mph 6 mph 65% 0 in 88 W/m2
15:36 64.6 °F 53.1 °F 29.4 in ENE 3.8 mph 6 mph 66% 0 in 73 W/m2
15:41 64 °F 52.9 °F 29.4 in ENE 3.8 mph 6 mph 67% 0 in 71 W/m2
15:46 63.7 °F 52.9 °F 29.4 in East 2.2 mph 6 mph 68% 0 in 57 W/m2
15:51 63.5 °F 52.9 °F 29.4 in East 3.1 mph 6 mph 68% 0 in 42 W/m2
15:56 63.3 °F 53.1 °F 29.4 in ENE 3.1 mph 5.4 mph 69% 0 in 32 W/m2
16:01 63.1 °F 52.9 °F 29.4 in East 5.4 mph 6.9 mph 69% 0 in 33 W/m2
16:06 63 °F 53.1 °F 29.4 in East 3.8 mph 6.9 mph 70% 0 in 28 W/m2
16:11 62.8 °F 53.2 °F 29.4 in ENE 2.2 mph 5.4 mph 71% 0 in 24 W/m2
16:16 62.6 °F 53.4 °F 29.4 in ENE 2.2 mph 5.4 mph 72% 0 in 21 W/m2
16:21 62.2 °F 54 °F 29.4 in ENE 3.1 mph 4.5 mph 74% 0 in 20 W/m2
16:26 62.1 °F 54.1 °F 29.4 in ENE 8.3 mph 9.8 mph 75% 0 in 22 W/m2
16:31 62.1 °F 54.1 °F 29.4 in ENE 2.2 mph 9.8 mph 75% 0 in 20 W/m2
16:36 62.1 °F 54.1 °F 29.4 in NE 6 mph 9.8 mph 75% 0 in 12 W/m2
16:41 62.2 °F 54.1 °F 29.4 in NE 3.1 mph 8.3 mph 75% 0 in 7 W/m2
16:46 62.2 °F 54.1 °F 29.4 in NE 8.3 mph 13.6 mph 75% 0 in 4 W/m2
16:51 62.1 °F 54.3 °F 29.4 in ENE 9.2 mph 15.2 mph 76% 0 in 4 W/m2
16:56 62.1 °F 54.3 °F 29.4 in ENE 3.1 mph 15.2 mph 76% 0 in 4 W/m2
17:01 61.9 °F 54.1 °F 29.4 in NE 6 mph 13.6 mph 76% 0 in 1 W/m2
17:06 61.7 °F 54.3 °F 29.4 in NE 4.5 mph 9.8 mph 77% 0 in 0 W/m2
17:11 61.7 °F 54.3 °F 29.4 in ENE 6.9 mph 9.8 mph 77% 0 in 0 W/m2
17:16 61.5 °F 54.7 °F 29.3 in ENE 6.9 mph 11.4 mph 78% 0 in 0 W/m2
17:21 61.5 °F 54.7 °F 29.3 in ENE 5.4 mph 12.1 mph 78% 0 in 0 W/m2
17:26 61.3 °F 54.9 °F 29.3 in ENE 3.1 mph 12.1 mph 79% 0 in 0 W/m2
17:31 61.2 °F 55 °F 29.3 in NE 3.1 mph 7.6 mph 80% 0 in 0 W/m2
17:36 61 °F 55.6 °F 29.3 in NE 2.2 mph 9.2 mph 82% 0 in 0 W/m2
17:41 61 °F 55.6 °F 29.3 in NE 4.5 mph 9.2 mph 82% 0 in 0 W/m2
17:46 61.3 °F 55.8 °F 29.3 in NE 9.8 mph 13 mph 82% 0 in 0 W/m2
17:51 61.5 °F 55.6 °F 29.3 in NE 8.3 mph 15.9 mph 81% 0 in 0 W/m2
17:56 61.7 °F 55.8 °F 29.3 in ENE 10.7 mph 16.8 mph 81% 0 in 0 W/m2
18:01 61.3 °F 55.6 °F 29.3 in ENE 8.3 mph 16.8 mph 81% 0 in 0 W/m2
18:06 61.3 °F 55.8 °F 29.3 in ENE 6 mph 14.5 mph 82% 0 in 0 W/m2
18:11 61.5 °F 55.6 °F 29.3 in ENE 6 mph 14.5 mph 81% 0 in 0 W/m2
18:16 61.5 °F 55.6 °F 29.3 in NE 3.8 mph 11.4 mph 81% 0 in 0 W/m2
18:21 61.3 °F 55.6 °F 29.3 in NE 4.5 mph 11.4 mph 81% 0 in 0 W/m2
18:26 61.3 °F 55.6 °F 29.3 in NE 3.8 mph 7.6 mph 81% 0 in 0 W/m2
18:31 61.3 °F 55.6 °F 29.3 in NE 1.6 mph 7.6 mph 81% 0 in 0 W/m2
18:36 61.2 °F 55.2 °F 29.3 in NNE 1.6 mph 6 mph 81% 0 in 0 W/m2
18:41 61 °F 55 °F 29.3 in North 1.6 mph 4.5 mph 81% 0 in 0 W/m2
18:46 60.4 °F 54.9 °F 29.3 in NNW 2.2 mph 4.5 mph 82% 0 in 0 W/m2
18:51 59.9 °F 54.7 °F 29.3 in NW 0.7 mph 2.2 mph 83% 0 in 0 W/m2
18:56 59.5 °F 54.3 °F 29.3 in Calm   3.1 mph 83% 0 in 0 W/m2
19:01 59.2 °F 54.3 °F 29.3 in SW 0.7 mph 3.1 mph 84% 0 in 0 W/m2
19:06 58.6 °F 54.1 °F 29.3 in East 3.8 mph 7.6 mph 85% 0 in 0 W/m2
19:11 59.5 °F 55.4 °F 29.3 in NE 3.8 mph 8.3 mph 86% 0 in 0 W/m2
19:16 61.3 °F 56.5 °F 29.3 in NE 13 mph 19.7 mph 84% 0 in 0 W/m2
19:21 62.6 °F 55.8 °F 29.3 in NNE 8.3 mph 19.7 mph 78% 0.01 in 0 W/m2
19:26 63.1 °F 55.6 °F 29.3 in NNE 4.5 mph 19.7 mph 76% 0.01 in 0 W/m2
19:31 63.3 °F 55.2 °F 29.2 in NE 4.5 mph 18.3 mph 75% 0.01 in 0 W/m2
19:36 63.5 °F 55 °F 29.2 in NE 8.3 mph 18.3 mph 74% 0.01 in 0 W/m2
19:41 63.5 °F 55 °F 29.2 in NNE 7.6 mph 15.2 mph 74% 0.01 in 0 W/m2
19:46 63.5 °F 54.7 °F 29.2 in NNE 6 mph 15.2 mph 73% 0.01 in 0 W/m2
19:51 63.5 °F 54.7 °F 29.2 in NE 4.5 mph 13.6 mph 73% 0.01 in 0 W/m2
19:56 63.7 °F 54.5 °F 29.2 in ENE 12.1 mph 15.2 mph 72% 0.01 in 0 W/m2
20:01 63.7 °F 54.5 °F 29.2 in ENE 7.6 mph 15.2 mph 72% 0.01 in 0 W/m2
20:06 63.5 °F 54.3 °F 29.2 in NE 6 mph 15.2 mph 72% 0.01 in 0 W/m2
20:11 63.3 °F 54.1 °F 29.2 in NE 6.9 mph 15.9 mph 72% 0.01 in 0 W/m2
20:16 63.3 °F 54.1 °F 29.2 in NE 13 mph 17.4 mph 72% 0.01 in 0 W/m2
20:21 63.7 °F 54.1 °F 29.2 in NE 6.9 mph 17.4 mph 71% 0 in 0 W/m2
20:26 63.5 °F 54 °F 29.2 in NE 4.5 mph 17.4 mph 71% 0 in 0 W/m2
20:31 63.3 °F 53.8 °F 29.2 in NE 7.6 mph 17.4 mph 71% 0 in 0 W/m2
20:36 63.5 °F 54 °F 29.2 in ENE 5.4 mph 13 mph 71% 0 in 0 W/m2
20:41 63.3 °F 54.1 °F 29.2 in ENE 5.4 mph 10.7 mph 72% 0 in 0 W/m2
20:46 63.3 °F 54.1 °F 29.2 in ENE 6 mph 11.4 mph 72% 0 in 0 W/m2
20:51 63.3 °F 54.1 °F 29.2 in NE 6.9 mph 13.6 mph 72% 0 in 0 W/m2
20:56 63.3 °F 54.1 °F 29.2 in NE 4.5 mph 13.6 mph 72% 0 in 0 W/m2
21:01 62.8 °F 54 °F 29.2 in ENE 5.4 mph 11.4 mph 73% 0 in 0 W/m2
21:06 62.8 °F 54 °F 29.2 in NE 3.8 mph 10.7 mph 73% 0 in 0 W/m2
21:11 63.1 °F 54.3 °F 29.2 in NE 6.9 mph 8.3 mph 73% 0 in 0 W/m2
21:16 63.1 °F 54.3 °F 29.1 in NE 3.1 mph 8.3 mph 73% 0 in 0 W/m2
21:21 63 °F 54.1 °F 29.2 in NE 0.7 mph 8.3 mph 73% 0 in 0 W/m2
21:26 62.6 °F 53.8 °F 29.2 in NNE 3.1 mph 6.9 mph 73% 0 in 0 W/m2
21:31 62.6 °F 53.8 °F 29.2 in NNE 3.1 mph 6.9 mph 73% 0 in 0 W/m2
21:36 62.6 °F 53.8 °F 29.2 in NNE 6.9 mph 8.3 mph 73% 0 in 0 W/m2
21:41 63.1 °F 54 °F 29.1 in NE 4.5 mph 11.4 mph 72% 0 in 0 W/m2
21:46 63.3 °F 54.1 °F 29.1 in NNE 3.8 mph 13 mph 72% 0 in 0 W/m2
21:51 63.3 °F 54.1 °F 29.1 in NNE 5.4 mph 13 mph 72% 0 in 0 W/m2
21:56 63.1 °F 54.3 °F 29.1 in NNE 6 mph 12.1 mph 73% 0 in 0 W/m2
22:01 62.6 °F 54.7 °F 29.1 in NNE 9.2 mph 16.8 mph 75% 0 in 0 W/m2
22:06 62.1 °F 55.6 °F 29.1 in NE 6 mph 16.8 mph 79% 0 in 0 W/m2
22:11 61.9 °F 55.8 °F 29.1 in NE 4.5 mph 11.4 mph 80% 0 in 0 W/m2
22:16 61.5 °F 55.6 °F 29.1 in NNE 7.6 mph 10.7 mph 81% 0 in 0 W/m2
22:21 61.9 °F 55.8 °F 29.1 in NNE 6.9 mph 27.3 mph 80% 0 in 0 W/m2
22:26 62.1 °F 54.9 °F 29.1 in NNE 6 mph 27.3 mph 77% 0 in 0 W/m2
22:31 62.1 °F 54.9 °F 29.1 in NE 8.3 mph 23.5 mph 77% 0 in 0 W/m2
22:36 62.1 °F 54.9 °F 29.1 in ENE 3.1 mph 19 mph 77% 0 in 0 W/m2
22:41 62.1 °F 54.9 °F 29.1 in NE 9.8 mph 14.5 mph 77% 0 in 0 W/m2
22:46 62.1 °F 54.3 °F 29 in NE 6.9 mph 14.5 mph 76% 0 in 0 W/m2
22:51 62.1 °F 54.3 °F 29 in ENE 15.9 mph 20.6 mph 76% 0 in 0 W/m2
22:56 62.4 °F 54.3 °F 29 in ENE 9.2 mph 22.1 mph 75% 0.01 in 0 W/m2
23:01 62.1 °F 54.3 °F 29 in NE 3.8 mph 22.1 mph 76% 0.01 in 0 W/m2
23:06 62.1 °F 54.3 °F 29 in ENE 7.6 mph 22.1 mph 76% 0.01 in 0 W/m2
23:11 62.1 °F 54.3 °F 29 in ENE 6.9 mph 22.1 mph 76% 0.01 in 0 W/m2
23:16 62.6 °F 54.7 °F 29 in NE 10.7 mph 17.4 mph 75% 0.01 in 0 W/m2
23:21 62.4 °F 54.9 °F 29 in NE 5.4 mph 20.6 mph 76% 0.01 in 0 W/m2
23:26 62.4 °F 55 °F 28.9 in ENE 9.8 mph 20.6 mph 77% 0.01 in 0 W/m2
23:31 62.6 °F 54.9 °F 28.9 in NE 10.7 mph 19 mph 76% 0.01 in 0 W/m2
23:36 63 °F 55.2 °F 28.9 in NE 4.5 mph 19 mph 76% 0.01 in 0 W/m2
23:41 62.6 °F 54.9 °F 28.9 in NNE 3.1 mph 15.2 mph 76% 0.01 in 0 W/m2
23:46 62.4 °F 55.6 °F 28.9 in NE 2.2 mph 8.3 mph 78% 0.01 in 0 W/m2
23:56 62.1 °F 55 °F 28.9 in North 3.8 mph 8.3 mph 78% 0 in 0 W/m2
Northern Hawkes Bay. New Zealand Historic Data
Compliments of Weather Underground - 2 mb